createdAt,value
2022-08-22T00:02:19.602Z,101744.31
2022-08-22T00:03:04.186Z,101719.44
2022-08-22T00:05:06.205Z,101743.13
2022-08-22T00:08:09.158Z,101750.56
2022-08-22T00:10:53.827Z,101755.63
2022-08-22T00:13:45.354Z,101751.84
2022-08-22T00:16:40.412Z,101757.31
2022-08-22T00:19:31.771Z,101763.28
2022-08-22T00:22:41.983Z,101761.78
2022-08-22T00:25:50.039Z,101756.28
2022-08-22T00:28:27.953Z,101754.31
2022-08-22T00:31:02.713Z,101755.06
2022-08-22T00:33:39.038Z,101754.31
2022-08-22T00:36:30.816Z,101759.03
2022-08-22T00:39:15.861Z,101761.03
2022-08-22T00:41:45.117Z,101750.03
2022-08-22T00:44:48.973Z,101754.78
2022-08-22T00:47:26.252Z,101763.00
2022-08-22T00:50:01.459Z,101755.53
2022-08-22T00:52:35.542Z,101753.28
2022-08-22T00:55:09.689Z,101753.53
2022-08-22T00:57:39.134Z,101754.78
2022-08-22T01:00:19.014Z,101760.75
2022-08-22T01:03:22.250Z,101763.50
2022-08-22T01:05:51.630Z,101758.50
2022-08-22T01:08:42.363Z,101759.22
2022-08-22T01:11:37.327Z,101757.25
2022-08-22T01:14:34.516Z,101758.19
2022-08-22T01:17:25.979Z,101756.22
2022-08-22T01:19:52.779Z,101760.94
2022-08-22T01:22:19.244Z,101759.94
2022-08-22T01:25:22.480Z,101752.19
2022-08-22T01:28:04.425Z,101761.44
2022-08-22T01:30:54.275Z,101759.94
2022-08-22T01:33:53.515Z,101759.19
2022-08-22T01:36:55.339Z,101746.69
2022-08-22T01:39:27.720Z,101741.19
2022-08-22T01:42:05.033Z,101743.19
2022-08-22T01:44:37.634Z,101748.69
2022-08-22T01:47:07.119Z,101754.91
2022-08-22T01:49:33.530Z,101754.16
2022-08-22T01:52:08.740Z,101749.16
2022-08-22T01:54:56.356Z,101757.13
2022-08-22T01:57:24.697Z,101755.41
2022-08-22T01:59:53.996Z,101753.16
2022-08-22T02:02:52.136Z,101752.41
2022-08-22T02:05:21.960Z,101751.91
2022-08-22T02:07:54.528Z,101746.91
2022-08-22T02:10:40.252Z,101746.91
2022-08-22T02:13:13.006Z,101749.16
2022-08-22T02:15:39.756Z,101749.91
2022-08-22T02:18:06.263Z,101755.16
2022-08-22T02:21:05.205Z,101759.88
2022-08-22T02:23:46.857Z,101754.84
2022-08-22T02:26:20.044Z,101751.66
2022-08-22T02:28:58.849Z,101745.88
2022-08-22T02:31:44.206Z,101736.88
2022-08-22T02:34:35.758Z,101745.13
2022-08-22T02:37:21.956Z,101738.88
2022-08-22T02:40:27.361Z,101742.84
2022-08-22T02:42:59.615Z,101744.38
2022-08-22T02:45:43.842Z,101740.09
2022-08-22T02:48:27.705Z,101737.34
2022-08-22T02:50:57.835Z,101740.84
2022-08-22T02:53:37.172Z,101745.59
2022-08-22T02:56:13.100Z,101742.09
2022-08-22T02:58:50.247Z,101735.09
2022-08-22T03:01:22.249Z,101733.88
2022-08-22T03:03:49.888Z,101732.63
2022-08-22T03:06:36.422Z,101730.34
2022-08-22T03:09:22.020Z,101735.09
2022-08-22T03:12:15.481Z,101736.31
2022-08-22T03:14:56.067Z,101736.31
2022-08-22T03:17:30.543Z,101724.13
2022-08-22T03:20:13.453Z,101729.31
2022-08-22T03:22:44.417Z,101731.59
2022-08-22T03:25:10.894Z,101735.09
2022-08-22T03:27:56.421Z,101734.06
2022-08-22T03:30:33.252Z,101730.09
2022-08-22T03:33:18.214Z,101733.31
2022-08-22T03:35:44.966Z,101729.06
2022-08-22T03:38:27.371Z,101726.31
2022-08-22T03:40:56.883Z,101728.56
2022-08-22T03:43:29.287Z,101729.06
2022-08-22T03:46:19.972Z,101733.78
2022-08-22T03:49:01.658Z,101735.31
2022-08-22T03:51:53.056Z,101740.50
2022-08-22T03:54:40.286Z,101740.06
2022-08-22T03:57:24.843Z,101758.97
2022-08-22T04:00:10.321Z,101764.47
2022-08-22T04:02:55.410Z,101777.91
2022-08-22T04:05:55.648Z,101771.19
2022-08-22T04:08:49.240Z,101766.16
2022-08-22T04:11:36.788Z,101768.91
2022-08-22T04:14:09.041Z,101775.91
2022-08-22T04:17:11.210Z,101771.66
2022-08-22T04:19:55.715Z,101775.16
2022-08-22T04:22:27.168Z,101776.88
2022-08-22T04:25:07.532Z,101775.63
2022-08-22T04:28:31.557Z,101779.63
2022-08-22T04:31:14.150Z,101778.09
2022-08-22T04:34:08.450Z,101782.09
2022-08-22T04:36:43.327Z,101780.38
2022-08-22T04:39:41.739Z,101785.09
2022-08-22T04:42:33.339Z,101789.06
2022-08-22T04:45:17.857Z,101788.59
2022-08-22T04:48:20.652Z,101791.34
2022-08-22T04:50:55.043Z,101791.81
2022-08-22T04:53:49.461Z,101799.31
2022-08-22T04:56:22.188Z,101786.03
2022-08-22T04:58:54.140Z,101791.81
2022-08-22T05:01:25.742Z,101791.09
2022-08-22T05:04:00.474Z,101791.81
2022-08-22T05:06:32.853Z,101789.56
2022-08-22T05:09:04.528Z,101792.31
2022-08-22T05:11:33.016Z,101802.50
2022-08-22T05:14:25.411Z,101797.03
2022-08-22T05:16:54.859Z,101792.56
2022-08-22T05:19:32.268Z,101801.56
2022-08-22T05:21:59.208Z,101802.78
2022-08-22T05:24:36.103Z,101805.53
2022-08-22T05:27:11.352Z,101806.28
2022-08-22T05:29:42.693Z,101803.56
2022-08-22T05:32:17.949Z,101808.78
2022-08-22T05:34:46.993Z,101815.78
2022-08-22T05:37:24.462Z,101808.78
2022-08-22T05:39:57.233Z,101813.78
2022-08-22T05:42:37.533Z,101815.47
2022-08-22T05:45:11.485Z,101820.78
2022-08-22T05:47:48.149Z,101820.53
2022-08-22T05:50:22.365Z,101828.75
2022-08-22T05:52:55.287Z,101828.00
2022-08-22T05:55:24.765Z,101828.25
2022-08-22T05:58:25.283Z,101827.22
2022-08-22T06:01:24.089Z,101833.16
2022-08-22T06:03:57.259Z,101832.25
2022-08-22T06:06:26.877Z,101831.50
2022-08-22T06:09:13.077Z,101832.69
2022-08-22T06:12:00.155Z,101833.94
2022-08-22T06:14:49.665Z,101842.91
2022-08-22T06:17:22.509Z,101838.19
2022-08-22T06:19:52.426Z,101840.47
2022-08-22T06:22:23.210Z,101849.94
2022-08-22T06:24:51.787Z,101847.97
2022-08-22T06:27:22.927Z,101850.69
2022-08-22T06:30:01.525Z,101856.19
2022-08-22T06:32:59.407Z,101856.19
2022-08-22T06:35:29.971Z,101850.19
2022-08-22T06:38:00.615Z,101865.19
2022-08-22T06:40:28.444Z,101865.91
2022-08-22T06:42:57.169Z,101861.94
2022-08-22T06:45:27.637Z,101862.69
2022-08-22T06:48:12.346Z,101863.44
2022-08-22T06:50:42.749Z,101860.72
2022-08-22T06:53:12.188Z,101850.97
2022-08-22T06:55:42.697Z,101855.97
2022-08-22T06:58:17.023Z,101858.72
2022-08-22T07:00:49.767Z,101861.00
2022-08-22T07:03:26.545Z,101858.25
2022-08-22T07:05:56.134Z,101860.22
2022-08-22T07:08:24.515Z,101864.00
2022-08-22T07:11:21.774Z,101868.75
2022-08-22T07:13:57.273Z,101868.00
2022-08-22T07:16:48.112Z,101862.31
2022-08-22T07:19:30.768Z,101860.81
2022-08-22T07:21:58.834Z,101869.28
2022-08-22T07:24:29.706Z,101864.56
2022-08-22T07:26:56.117Z,101862.31
2022-08-22T07:29:42.793Z,101872.03
2022-08-22T07:32:18.721Z,101871.56
2022-08-22T07:35:13.869Z,101873.84
2022-08-22T07:37:43.480Z,101880.84
2022-08-22T07:40:33.199Z,101881.09
2022-08-22T07:43:14.559Z,101877.41
2022-08-22T07:45:49.406Z,101882.44
2022-08-22T07:48:33.435Z,101884.69
2022-08-22T07:51:13.600Z,101873.25
2022-08-22T07:54:10.430Z,101870.31
2022-08-22T07:56:42.994Z,101882.31
2022-08-22T07:59:13.003Z,101878.31
2022-08-22T08:01:48.358Z,101879.84
2022-08-22T08:04:19.505Z,101871.13
2022-08-22T08:06:51.000Z,101872.63
2022-08-22T08:09:20.150Z,101873.69
2022-08-22T08:11:49.393Z,101869.97
2022-08-22T08:14:19.949Z,101870.50
2022-08-22T08:16:55.285Z,101884.31
2022-08-22T08:19:22.979Z,101881.66
2022-08-22T08:21:54.201Z,101873.00
2022-08-22T08:24:28.328Z,101869.56
2022-08-22T08:27:26.713Z,101870.63
2022-08-22T08:29:58.950Z,101865.22
2022-08-22T08:32:30.563Z,101862.03
2022-08-22T08:34:57.624Z,101862.38
2022-08-22T08:37:41.419Z,101867.16
2022-08-22T08:40:22.639Z,101866.75
2022-08-22T08:43:29.607Z,101864.31
2022-08-22T08:46:24.871Z,101856.41
2022-08-22T08:49:11.304Z,101860.97
2022-08-22T08:52:02.418Z,101859.78
2022-08-22T08:54:47.535Z,101862.84
2022-08-22T08:57:29.490Z,101859.66
2022-08-22T09:00:05.747Z,101861.22
2022-08-22T09:02:50.484Z,101859.97
2022-08-22T09:05:45.337Z,101859.28
2022-08-22T09:08:29.131Z,101853.81
2022-08-22T09:11:09.936Z,101854.59
2022-08-22T09:13:44.430Z,101851.88
2022-08-22T09:16:29.594Z,101842.91
2022-08-22T09:18:59.213Z,101845.66
2022-08-22T09:21:43.881Z,101856.25
2022-08-22T09:24:41.337Z,101849.50
2022-08-22T09:27:14.971Z,101850.78
2022-08-22T09:29:56.996Z,101842.78
2022-08-22T09:32:48.468Z,101840.34
2022-08-22T09:35:25.372Z,101838.38
2022-08-22T09:38:20.544Z,101839.13
2022-08-22T09:40:56.583Z,101837.91
2022-08-22T09:43:39.606Z,101843.91
2022-08-22T09:46:21.049Z,101842.16
2022-08-22T09:48:53.020Z,101835.69
2022-08-22T09:51:38.546Z,101836.19
2022-08-22T09:54:18.855Z,101828.41
2022-08-22T09:57:22.857Z,101838.97
2022-08-22T10:00:13.474Z,101831.19
2022-08-22T10:02:51.371Z,101834.69
2022-08-22T10:05:41.080Z,101824.19
2022-08-22T10:08:30.086Z,101827.44
2022-08-22T10:11:19.499Z,101829.19
2022-08-22T10:14:00.531Z,101824.19
2022-08-22T10:16:38.370Z,101822.44
2022-08-22T10:19:32.289Z,101821.94
2022-08-22T10:22:20.589Z,101817.44
2022-08-22T10:24:54.524Z,101814.41
2022-08-22T10:27:48.900Z,101812.41
2022-08-22T10:30:22.278Z,101820.22
2022-08-22T10:33:02.306Z,101817.69
2022-08-22T10:35:50.619Z,101811.16
2022-08-22T10:38:25.747Z,101809.16
2022-08-22T10:40:56.961Z,101817.66
2022-08-22T10:43:29.718Z,101804.13
2022-08-22T10:46:06.682Z,101806.41
2022-08-22T10:48:58.485Z,101798.88
2022-08-22T10:51:34.790Z,101799.91
2022-08-22T10:54:33.140Z,101802.13
2022-08-22T10:57:16.137Z,101805.63
2022-08-22T10:59:50.278Z,101804.13
2022-08-22T11:02:29.228Z,101800.63
2022-08-22T11:05:08.131Z,101793.84
2022-08-22T11:07:48.784Z,101798.13
2022-08-22T11:10:39.718Z,101799.38
2022-08-22T11:13:49.712Z,101794.09
2022-08-22T11:16:56.445Z,101789.34
2022-08-22T11:19:41.378Z,101795.13
2022-08-22T11:22:27.236Z,101785.56
2022-08-22T11:25:04.725Z,101795.34
2022-08-22T11:27:49.732Z,101782.56
2022-08-22T11:30:30.195Z,101792.34
2022-08-22T11:33:33.859Z,101791.34
2022-08-22T11:36:16.544Z,101788.09
2022-08-22T11:39:02.509Z,101794.63
2022-08-22T11:41:52.487Z,101784.81
2022-08-22T11:44:34.555Z,101782.06
2022-08-22T11:47:20.479Z,101778.06
2022-08-22T11:50:13.438Z,101776.56
2022-08-22T11:52:40.582Z,101781.56
2022-08-22T11:55:09.027Z,101780.56
2022-08-22T11:57:44.379Z,101783.06
2022-08-22T12:00:59.470Z,101778.28
2022-08-22T12:03:55.726Z,101781.78
2022-08-22T12:06:41.698Z,101771.75
2022-08-22T12:09:17.941Z,101772.75
2022-08-22T12:12:18.845Z,101782.03
2022-08-22T12:15:11.215Z,101766.75
2022-08-22T12:18:19.965Z,101766.19
2022-08-22T12:21:16.040Z,101764.16
2022-08-22T12:23:52.259Z,101777.19
2022-08-22T12:26:18.744Z,101769.38
2022-08-22T12:29:40.045Z,101771.34
2022-08-22T12:33:00.746Z,101766.03
2022-08-22T12:35:33.264Z,101761.00
2022-08-22T12:38:28.244Z,101757.47
2022-08-22T12:40:58.967Z,101757.22
2022-08-22T12:43:32.228Z,101755.19
2022-08-22T12:46:17.339Z,101752.69
2022-08-22T12:49:13.063Z,101743.13
2022-08-22T12:51:59.862Z,101750.91
2022-08-22T12:54:45.382Z,101742.88
2022-08-22T12:57:37.274Z,101744.09
2022-08-22T13:00:56.277Z,101740.41
2022-08-22T13:03:32.178Z,101736.94
2022-08-22T13:06:04.331Z,101738.72
2022-08-22T13:08:44.760Z,101730.44
2022-08-22T13:11:22.522Z,101728.97
2022-08-22T13:13:56.617Z,101729.47
2022-08-22T13:16:25.050Z,101730.75
2022-08-22T13:19:00.342Z,101744.03
2022-08-22T13:21:39.939Z,101727.00
2022-08-22T13:24:12.867Z,101728.78
2022-08-22T13:26:55.718Z,101728.97
2022-08-22T13:29:27.541Z,101727.56
2022-08-22T13:32:07.087Z,101726.66
2022-08-22T13:34:43.532Z,101732.97
2022-08-22T13:37:24.867Z,101722.28
2022-08-22T13:39:58.546Z,101728.09
2022-08-22T13:42:30.752Z,101723.56
2022-08-22T13:45:02.417Z,101726.88
2022-08-22T13:47:31.554Z,101733.75
2022-08-22T13:50:14.670Z,101728.78
2022-08-22T13:52:52.506Z,101731.84
2022-08-22T13:55:49.159Z,101732.41
2022-08-22T13:58:47.364Z,101737.72
2022-08-22T14:01:29.403Z,101735.28
2022-08-22T14:03:57.869Z,101733.53
2022-08-22T14:06:37.990Z,101728.03
2022-08-22T14:09:31.301Z,101736.59
2022-08-22T14:12:12.048Z,101738.91
2022-08-22T14:14:42.441Z,101730.13
2022-08-22T14:17:16.686Z,101731.66
2022-08-22T14:19:58.642Z,101721.66
2022-08-22T14:22:31.793Z,101721.91
2022-08-22T14:25:07.292Z,101720.69
2022-08-22T14:27:36.817Z,101713.66
2022-08-22T14:30:12.621Z,101727.78
2022-08-22T14:32:45.777Z,101721.25
2022-08-22T14:35:21.511Z,101720.25
2022-08-22T14:38:17.497Z,101721.78
2022-08-22T14:40:45.459Z,101717.28
2022-08-22T14:43:26.114Z,101716.81
2022-08-22T14:46:03.450Z,101716.56
2022-08-22T14:48:40.665Z,101716.84
2022-08-22T14:51:18.072Z,101706.84
2022-08-22T14:53:48.351Z,101703.09
2022-08-22T14:56:24.928Z,101700.06
2022-08-22T14:59:14.873Z,101691.31
2022-08-22T15:02:03.840Z,101699.34
2022-08-22T15:04:38.002Z,101692.34
2022-08-22T15:07:05.712Z,101694.88
2022-08-22T15:09:40.481Z,101690.84
2022-08-22T15:12:25.969Z,101696.88
2022-08-22T15:14:56.798Z,101700.91
2022-08-22T15:17:51.129Z,101687.38
2022-08-22T15:20:38.209Z,101685.13
2022-08-22T15:23:19.994Z,101687.41
2022-08-22T15:25:58.169Z,101683.91
2022-08-22T15:28:25.144Z,101687.66
2022-08-22T15:30:54.097Z,101684.69
2022-08-22T15:33:33.709Z,101682.19
2022-08-22T15:36:35.672Z,101676.44
2022-08-22T15:39:30.346Z,101679.69
2022-08-22T15:41:58.438Z,101680.19
2022-08-22T15:44:40.100Z,101675.72
2022-08-22T15:47:28.511Z,101678.72
2022-08-22T15:50:05.368Z,101675.72
2022-08-22T15:52:35.696Z,101672.69
2022-08-22T15:55:16.600Z,101667.47
2022-08-22T15:58:21.805Z,101669.97
2022-08-22T16:01:19.242Z,101671.22
2022-08-22T16:04:00.040Z,101667.22
2022-08-22T16:07:02.943Z,101666.22
2022-08-22T16:09:50.398Z,101653.44
2022-08-22T16:12:47.659Z,101662.25
2022-08-22T16:15:56.286Z,101662.00
2022-08-22T16:18:43.567Z,101665.03
2022-08-22T16:21:23.247Z,101663.50
2022-08-22T16:23:49.799Z,101660.50
2022-08-22T16:26:31.319Z,101656.78
2022-08-22T16:29:03.726Z,101656.53
2022-08-22T16:31:30.138Z,101656.25
2022-08-22T16:34:18.596Z,101661.78
2022-08-22T16:36:45.098Z,101661.03
2022-08-22T16:39:21.218Z,101657.25
2022-08-22T16:42:15.735Z,101655.78
2022-08-22T16:45:05.726Z,101661.00
2022-08-22T16:47:40.704Z,101663.53
2022-08-22T16:50:16.317Z,101663.31
2022-08-22T16:53:13.818Z,101671.34
2022-08-22T16:55:43.290Z,101668.56
2022-08-22T16:58:57.845Z,101669.06
2022-08-22T17:01:56.668Z,101670.06
2022-08-22T17:04:56.585Z,101669.31
2022-08-22T17:07:54.022Z,101674.59
2022-08-22T17:10:58.846Z,101666.56
2022-08-22T17:13:56.222Z,101667.84
2022-08-22T17:16:49.753Z,101668.09
2022-08-22T17:19:25.849Z,101678.38
2022-08-22T17:22:04.618Z,101666.34
2022-08-22T17:25:14.138Z,101671.09
2022-08-22T17:27:44.397Z,101668.84
2022-08-22T17:30:20.416Z,101669.84
2022-08-22T17:33:11.199Z,101675.09
2022-08-22T17:36:00.065Z,101675.09
2022-08-22T17:38:35.638Z,101676.38
2022-08-22T17:41:26.617Z,101676.84
2022-08-22T17:44:11.498Z,101679.84
2022-08-22T17:46:48.891Z,101685.88
2022-08-22T17:49:28.505Z,101681.13
2022-08-22T17:52:32.539Z,101679.38
2022-08-22T17:55:12.393Z,101679.84
2022-08-22T17:57:51.131Z,101692.13
2022-08-22T18:00:26.088Z,101684.13
2022-08-22T18:03:00.648Z,101696.63
2022-08-22T18:05:31.503Z,101696.38
2022-08-22T18:08:38.150Z,101697.38
2022-08-22T18:11:19.240Z,101700.13
2022-08-22T18:13:56.738Z,101699.88
2022-08-22T18:16:41.455Z,101712.16
2022-08-22T18:19:51.377Z,101714.66
2022-08-22T18:22:36.072Z,101720.41
2022-08-22T18:25:17.607Z,101713.41
2022-08-22T18:27:51.385Z,101712.41
2022-08-22T18:30:28.383Z,101717.16
2022-08-22T18:33:10.966Z,101715.63
2022-08-22T18:35:54.619Z,101720.16
2022-08-22T18:38:23.592Z,101724.16
2022-08-22T18:41:03.739Z,101726.91
2022-08-22T18:43:41.630Z,101734.91
2022-08-22T18:46:38.222Z,101737.44
2022-08-22T18:49:33.860Z,101735.91
2022-08-22T18:52:09.418Z,101743.91
2022-08-22T18:54:57.333Z,101746.66
2022-08-22T18:57:38.780Z,101754.19
2022-08-22T19:01:04.864Z,101748.16
2022-08-22T19:03:37.443Z,101761.16
2022-08-22T19:06:23.460Z,101761.66
2022-08-22T19:08:55.870Z,101764.44
2022-08-22T19:11:41.448Z,101773.66
2022-08-22T19:14:13.791Z,101761.91
2022-08-22T19:17:07.652Z,101761.41
2022-08-22T19:20:11.931Z,101766.16
2022-08-22T19:22:39.342Z,101773.66
2022-08-22T19:25:26.379Z,101778.91
2022-08-22T19:28:14.297Z,101778.63
2022-08-22T19:30:48.066Z,101772.88
2022-08-22T19:33:29.291Z,101770.13
2022-08-22T19:36:29.271Z,101780.88
2022-08-22T19:39:02.692Z,101781.59
2022-08-22T19:41:52.414Z,101786.13
2022-08-22T19:44:18.915Z,101790.13
2022-08-22T19:46:59.899Z,101785.38
2022-08-22T19:49:34.887Z,101794.88
2022-08-22T19:52:16.411Z,101785.59
2022-08-22T19:54:50.966Z,101785.59
2022-08-22T19:57:54.041Z,101785.31
2022-08-22T20:00:55.114Z,101791.34
2022-08-22T20:03:44.564Z,101794.84
2022-08-22T20:06:43.075Z,101791.81
2022-08-22T20:09:32.035Z,101797.31
2022-08-22T20:12:05.011Z,101793.34
2022-08-22T20:14:37.221Z,101787.59
2022-08-22T20:17:24.693Z,101794.31
2022-08-22T20:22:52.825Z,101795.53
2022-08-22T20:25:41.803Z,101801.56
2022-08-22T20:28:29.656Z,101800.06
2022-08-22T20:31:00.220Z,101798.06
2022-08-22T20:33:32.418Z,101798.53
2022-08-22T20:36:01.986Z,101797.78
2022-08-22T20:38:39.577Z,101792.78
2022-08-22T20:41:20.879Z,101796.78
2022-08-22T20:44:00.652Z,101793.28
2022-08-22T20:46:46.095Z,101793.75
2022-08-22T20:49:31.724Z,101802.75
2022-08-22T20:52:08.574Z,101799.75
2022-08-22T20:54:38.677Z,101797.00
2022-08-22T20:57:17.807Z,101797.00
2022-08-22T21:00:06.563Z,101803.00
2022-08-22T21:02:42.326Z,101798.75
2022-08-22T21:05:11.545Z,101794.03
2022-08-22T21:07:42.445Z,101792.47
2022-08-22T21:10:40.187Z,101799.22
2022-08-22T21:13:11.135Z,101797.22
2022-08-22T21:15:41.855Z,101799.75
2022-08-22T21:18:11.243Z,101797.44
2022-08-22T21:20:38.469Z,101787.97
2022-08-22T21:23:12.543Z,101795.47
2022-08-22T21:26:00.815Z,101800.72
2022-08-22T21:28:41.186Z,101809.44
2022-08-22T21:31:12.183Z,101804.72
2022-08-22T21:33:47.027Z,101810.22
2022-08-22T21:36:16.395Z,101810.97
2022-08-22T21:38:59.034Z,101822.94
2022-08-22T21:41:31.028Z,101821.72
2022-08-22T21:44:18.584Z,101823.72
2022-08-22T21:46:45.205Z,101816.69
2022-08-22T21:49:29.564Z,101827.44
2022-08-22T21:51:56.406Z,101825.94
2022-08-22T21:54:26.017Z,101825.94
2022-08-22T21:56:55.774Z,101821.94
2022-08-22T21:59:59.831Z,101821.41
2022-08-22T22:02:39.673Z,101827.13
2022-08-22T22:05:17.652Z,101829.16
2022-08-22T22:07:46.924Z,101833.16
2022-08-22T22:10:16.858Z,101838.66
2022-08-22T22:12:45.582Z,101838.66
2022-08-22T22:15:18.792Z,101843.41
2022-08-22T22:17:45.431Z,101842.66
2022-08-22T22:20:15.262Z,101850.63
2022-08-22T22:22:46.623Z,101845.13
2022-08-22T22:25:39.598Z,101852.63
2022-08-22T22:28:09.006Z,101846.38
2022-08-22T22:30:35.956Z,101847.13
2022-08-22T22:33:02.501Z,101845.13
2022-08-22T22:35:29.084Z,101838.63
2022-08-22T22:37:56.664Z,101845.59
2022-08-22T22:40:24.186Z,101846.13
2022-08-22T22:42:51.010Z,101853.13
2022-08-22T22:45:17.530Z,101855.63
2022-08-22T22:47:44.028Z,101846.88
2022-08-22T22:50:10.531Z,101847.63
2022-08-22T22:52:38.456Z,101846.56
2022-08-22T22:55:08.440Z,101850.13
2022-08-22T22:57:41.371Z,101840.06
2022-08-22T23:00:11.035Z,101853.34
2022-08-22T23:02:37.514Z,101842.09
2022-08-22T23:05:04.562Z,101846.09
2022-08-22T23:07:33.820Z,101843.03
2022-08-22T23:10:01.489Z,101846.09
2022-08-22T23:12:28.792Z,101844.09
2022-08-22T23:14:55.288Z,101843.34
2022-08-22T23:17:21.897Z,101843.03
2022-08-22T23:19:50.143Z,101853.56
2022-08-22T23:22:16.748Z,101849.03
2022-08-22T23:24:43.364Z,101849.03
2022-08-22T23:27:10.785Z,101847.81
2022-08-22T23:29:40.829Z,101841.56
2022-08-22T23:32:08.904Z,101841.31
2022-08-22T23:34:40.000Z,101842.78
2022-08-22T23:37:07.993Z,101842.03
2022-08-22T23:39:35.816Z,101848.78
2022-08-22T23:42:02.751Z,101840.53
2022-08-22T23:44:32.773Z,101839.75
2022-08-22T23:47:00.122Z,101843.00
2022-08-22T23:49:28.319Z,101846.03
2022-08-22T23:51:55.697Z,101836.25
2022-08-22T23:54:22.616Z,101840.00
2022-08-22T23:56:55.134Z,101836.03
2022-08-22T23:59:30.082Z,101829.75
